createdAt,value
2018-03-04T00:02:08.485Z,97.30
2018-03-04T00:04:36.007Z,97.70
2018-03-04T00:07:04.331Z,98.00
2018-03-04T00:09:31.850Z,98.00
2018-03-04T00:11:59.400Z,98.00
2018-03-04T00:14:26.925Z,97.80
2018-03-04T00:16:54.512Z,97.90
2018-03-04T00:19:22.072Z,98.00
2018-03-04T00:21:49.593Z,97.70
2018-03-04T00:24:17.155Z,97.40
2018-03-04T00:26:44.681Z,97.80
2018-03-04T00:29:12.208Z,97.70
2018-03-04T00:31:39.757Z,97.60
2018-03-04T00:34:07.280Z,97.60
2018-03-04T00:36:35.613Z,97.60
2018-03-04T00:39:03.156Z,97.50
2018-03-04T00:41:30.713Z,97.50
2018-03-04T00:43:58.237Z,97.80
2018-03-04T00:46:25.796Z,97.50
2018-03-04T00:48:53.320Z,97.40
2018-03-04T00:51:20.917Z,97.20
2018-03-04T00:53:48.450Z,97.10
2018-03-04T00:56:16.013Z,97.20
2018-03-04T00:58:43.538Z,97.10
2018-03-04T01:01:11.084Z,97.30
2018-03-04T01:03:38.608Z,97.30
2018-03-04T01:06:06.168Z,97.20
2018-03-04T01:08:33.701Z,97.40
2018-03-04T01:11:01.265Z,97.30
2018-03-04T01:13:28.793Z,97.40
2018-03-04T01:15:56.354Z,96.90
2018-03-04T01:18:23.880Z,97.10
2018-03-04T01:20:51.444Z,97.10
2018-03-04T01:23:18.981Z,97.10
2018-03-04T01:25:46.537Z,97.40
2018-03-04T01:28:14.080Z,97.40
2018-03-04T01:30:42.405Z,97.20
2018-03-04T01:33:09.933Z,97.20
2018-03-04T01:35:37.484Z,97.10
2018-03-04T01:38:05.012Z,96.70
2018-03-04T01:40:32.569Z,97.00
2018-03-04T01:43:00.860Z,96.80
2018-03-04T01:45:29.182Z,96.80
2018-03-04T01:47:56.749Z,96.80
2018-03-04T01:50:24.298Z,97.00
2018-03-04T01:52:51.841Z,96.90
2018-03-04T01:55:19.388Z,96.80
2018-03-04T01:57:46.912Z,96.60
2018-03-04T02:00:15.229Z,96.70
2018-03-04T02:02:42.756Z,96.70
2018-03-04T02:05:10.313Z,96.70
2018-03-04T02:07:37.837Z,96.60
2018-03-04T02:10:05.380Z,96.60
2018-03-04T02:12:32.909Z,96.60
2018-03-04T02:15:00.468Z,96.60
2018-03-04T02:17:27.988Z,96.60
2018-03-04T02:19:55.548Z,96.80
2018-03-04T02:22:23.074Z,96.90
2018-03-04T02:24:50.597Z,96.80
2018-03-04T02:27:18.157Z,97.20
2018-03-04T02:29:45.681Z,96.80
2018-03-04T02:32:13.233Z,96.80
2018-03-04T02:34:41.525Z,96.90
2018-03-04T02:37:09.849Z,96.80
2018-03-04T02:39:37.382Z,96.80
2018-03-04T02:42:05.712Z,96.90
2018-03-04T02:44:33.232Z,96.90
2018-03-04T02:47:01.566Z,96.80
2018-03-04T02:49:29.088Z,96.80
2018-03-04T02:51:56.646Z,96.90
2018-03-04T02:54:24.212Z,97.00
2018-03-04T02:56:51.746Z,97.20
2018-03-04T02:59:19.272Z,97.30
2018-03-04T03:01:46.821Z,97.30
2018-03-04T03:04:14.358Z,97.10
2018-03-04T03:06:41.909Z,97.00
2018-03-04T03:09:10.209Z,97.00
2018-03-04T03:11:37.781Z,97.00
2018-03-04T03:14:06.069Z,97.20
2018-03-04T03:16:34.386Z,97.10
2018-03-04T03:19:01.922Z,97.50
2018-03-04T03:21:29.493Z,97.30
2018-03-04T03:23:57.052Z,97.30
2018-03-04T03:26:24.612Z,97.30
2018-03-04T03:28:52.132Z,97.10
2018-03-04T03:31:19.693Z,97.00
2018-03-04T03:33:47.982Z,97.20
2018-03-04T03:36:16.309Z,97.20
2018-03-04T03:38:43.863Z,97.20
2018-03-04T03:41:11.413Z,97.20
2018-03-04T03:43:39.708Z,97.30
2018-03-04T03:46:08.024Z,97.40
2018-03-04T03:48:35.553Z,97.40
2018-03-04T03:51:03.104Z,97.70
2018-03-04T03:53:30.620Z,97.50
2018-03-04T03:55:58.170Z,97.50
2018-03-04T03:58:25.740Z,97.60
2018-03-04T04:00:53.312Z,97.70
2018-03-04T04:03:20.828Z,97.90
2018-03-04T04:05:48.388Z,98.20
2018-03-04T04:08:15.917Z,98.30
2018-03-04T04:10:43.480Z,98.40
2018-03-04T04:13:11.007Z,98.30
2018-03-04T04:15:38.568Z,98.50
2018-03-04T04:18:06.865Z,99.10
2018-03-04T04:20:34.449Z,99.10
2018-03-04T04:23:01.978Z,99.30
2018-03-04T04:25:29.540Z,99.40
2018-03-04T04:27:57.069Z,99.50
2018-03-04T04:30:24.623Z,99.70
2018-03-04T04:32:52.914Z,99.80
2018-03-04T04:35:20.485Z,99.80
2018-03-04T04:37:48.023Z,99.70
2018-03-04T04:40:15.576Z,99.50
2018-03-04T04:42:43.105Z,99.80
2018-03-04T04:45:10.669Z,99.90
2018-03-04T04:47:39.044Z,99.60
2018-03-04T04:50:06.604Z,99.60
2018-03-04T04:52:34.124Z,99.70
2018-03-04T04:55:01.680Z,99.80
2018-03-04T04:57:29.988Z,99.90
2018-03-04T04:59:57.520Z,99.90
2018-03-04T05:02:25.079Z,99.90
2018-03-04T05:04:52.622Z,99.90
2018-03-04T05:07:20.187Z,99.80
2018-03-04T05:09:47.717Z,99.40
2018-03-04T05:12:16.044Z,98.90
2018-03-04T05:14:43.573Z,98.90
2018-03-04T05:17:11.149Z,99.10
2018-03-04T05:19:39.438Z,99.00
2018-03-04T05:22:06.988Z,99.10
2018-03-04T05:24:34.518Z,99.00
2018-03-04T05:27:02.084Z,98.80
2018-03-04T05:29:29.612Z,98.60
2018-03-04T05:31:57.177Z,98.80
2018-03-04T05:34:24.698Z,98.90
2018-03-04T05:36:52.252Z,98.80
2018-03-04T05:39:19.780Z,98.80
2018-03-04T05:41:47.333Z,98.70
2018-03-04T05:44:14.860Z,98.60
2018-03-04T05:46:43.194Z,98.70
2018-03-04T05:49:10.720Z,98.70
2018-03-04T05:51:38.272Z,98.60
2018-03-04T05:54:05.797Z,98.80
2018-03-04T05:56:33.343Z,98.80
2018-03-04T05:59:01.633Z,98.70
2018-03-04T06:01:29.952Z,98.90
2018-03-04T06:03:57.493Z,98.90
2018-03-04T06:06:25.808Z,98.80
2018-03-04T06:08:53.334Z,98.80
2018-03-04T06:11:20.900Z,99.10
2018-03-04T06:13:48.433Z,99.10
2018-03-04T06:16:15.988Z,99.40
2018-03-04T06:18:43.512Z,99.30
2018-03-04T06:21:11.059Z,99.30
2018-03-04T06:23:38.586Z,99.20
2018-03-04T06:26:06.911Z,99.20
2018-03-04T06:28:34.436Z,99.20
2018-03-04T06:31:01.995Z,99.00
2018-03-04T06:33:29.550Z,99.00
2018-03-04T06:35:57.093Z,98.80
2018-03-04T06:38:24.736Z,99.00
2018-03-04T06:40:53.078Z,99.10
2018-03-04T06:43:20.608Z,99.10
2018-03-04T06:45:48.951Z,98.80
2018-03-04T06:48:16.473Z,98.80
2018-03-04T06:50:44.787Z,99.00
2018-03-04T06:53:12.316Z,99.00
2018-03-04T06:55:39.868Z,99.00
2018-03-04T06:58:07.393Z,98.90
2018-03-04T07:00:34.950Z,98.90
2018-03-04T07:03:03.245Z,98.60
2018-03-04T07:05:31.564Z,98.50
2018-03-04T07:07:59.087Z,98.50
2018-03-04T07:10:26.650Z,98.30
2018-03-04T07:12:54.178Z,98.20
2018-03-04T07:15:21.733Z,98.10
2018-03-04T07:17:49.259Z,97.80
2018-03-04T07:20:16.827Z,97.70
2018-03-04T07:22:44.356Z,97.50
2018-03-04T07:25:11.911Z,97.30
2018-03-04T07:27:40.317Z,97.10
2018-03-04T07:30:07.860Z,97.10
2018-03-04T07:32:35.385Z,97.10
2018-03-04T07:35:02.946Z,96.90
2018-03-04T07:37:30.475Z,96.90
2018-03-04T07:39:58.030Z,96.80
2018-03-04T07:42:25.556Z,96.50
2018-03-04T07:44:53.124Z,96.10
2018-03-04T07:47:20.651Z,96.10
2018-03-04T07:49:48.983Z,96.00
2018-03-04T07:52:16.513Z,95.70
2018-03-04T07:54:44.096Z,95.60
2018-03-04T07:57:12.220Z,95.60
2018-03-04T07:59:39.735Z,95.40
2018-03-04T08:02:08.159Z,95.50
2018-03-04T08:04:35.680Z,95.10
2018-03-04T08:07:03.229Z,95.70
2018-03-04T08:09:30.753Z,95.50
2018-03-04T08:11:58.308Z,95.50
2018-03-04T08:14:25.832Z,95.60
2018-03-04T08:16:53.392Z,96.00
2018-03-04T08:19:21.673Z,96.50
2018-03-04T08:21:49.277Z,96.50
2018-03-04T08:24:28.601Z,96.40
2018-03-04T08:27:08.030Z,96.40
2018-03-04T08:29:35.568Z,96.00
2018-03-04T08:32:03.121Z,95.80
2018-03-04T08:34:30.724Z,95.80
2018-03-04T08:36:58.248Z,95.60
2018-03-04T08:39:26.536Z,93.90
2018-03-04T08:41:54.590Z,94.20
2018-03-04T08:44:22.101Z,93.60
2018-03-04T08:46:50.442Z,93.10
2018-03-04T08:49:17.975Z,93.10
2018-03-04T08:51:45.528Z,93.20
2018-03-04T08:54:13.816Z,93.20
2018-03-04T08:56:41.389Z,93.20
2018-03-04T08:59:09.679Z,92.30
2018-03-04T09:01:37.997Z,91.60
2018-03-04T09:04:05.519Z,91.60
2018-03-04T09:06:33.074Z,91.10
2018-03-04T09:09:00.598Z,91.20
2018-03-04T09:11:28.153Z,90.80
2018-03-04T09:13:55.678Z,90.60
2018-03-04T09:16:23.233Z,90.10
2018-03-04T09:18:50.750Z,89.70
2018-03-04T09:21:18.343Z,88.00
2018-03-04T09:23:46.633Z,79.80
2018-03-04T09:26:14.956Z,72.50
2018-03-04T09:28:42.487Z,72.40
2018-03-04T09:31:10.813Z,68.40
2018-03-04T09:33:38.337Z,68.40
2018-03-04T09:36:05.900Z,66.40
2018-03-04T09:38:33.428Z,67.80
2018-03-04T09:41:00.984Z,63.80
2018-03-04T09:43:29.268Z,62.70
2018-03-04T09:45:57.586Z,56.50
2018-03-04T09:48:25.108Z,56.40
2018-03-04T09:50:52.704Z,57.50
2018-03-04T09:53:20.224Z,61.10
2018-03-04T09:55:47.761Z,67.00
2018-03-04T09:58:15.314Z,70.10
2018-03-04T10:00:43.628Z,68.80
2018-03-04T10:03:11.152Z,68.70
2018-03-04T10:05:38.716Z,69.50
2018-03-04T10:08:06.245Z,68.70
2018-03-04T10:10:33.799Z,65.80
2018-03-04T10:13:01.338Z,66.60
2018-03-04T10:15:28.896Z,69.60
2018-03-04T10:17:56.424Z,73.40
2018-03-04T10:20:23.991Z,73.60
2018-03-04T10:22:51.520Z,72.60
2018-03-04T10:25:19.082Z,69.80
2018-03-04T10:27:46.604Z,68.30
2018-03-04T10:30:14.729Z,63.90
2018-03-04T10:32:42.256Z,58.00
2018-03-04T10:35:10.581Z,56.00
2018-03-04T10:37:38.096Z,56.00
2018-03-04T10:40:05.668Z,55.80
2018-03-04T10:42:33.200Z,55.40
2018-03-04T10:45:00.776Z,56.80
2018-03-04T10:47:28.299Z,58.10
2018-03-04T10:49:55.821Z,57.40
2018-03-04T10:52:23.376Z,57.30
2018-03-04T10:54:50.901Z,56.30
2018-03-04T10:57:18.489Z,56.40
2018-03-04T10:59:46.034Z,56.50
2018-03-04T11:02:17.545Z,57.70
2018-03-04T11:04:45.465Z,59.70
2018-03-04T11:07:13.031Z,58.70
2018-03-04T11:09:40.579Z,57.20
2018-03-04T11:12:08.143Z,56.10
2018-03-04T11:14:36.429Z,56.00
2018-03-04T11:17:04.756Z,57.00
2018-03-04T11:19:32.328Z,57.00
2018-03-04T11:21:59.889Z,58.80
2018-03-04T11:24:27.415Z,62.10
2018-03-04T11:26:54.973Z,64.70
2018-03-04T11:29:22.494Z,66.00
2018-03-04T11:31:50.050Z,67.90
2018-03-04T11:34:18.346Z,71.00
2018-03-04T11:36:45.918Z,71.00
2018-03-04T11:39:14.212Z,74.90
2018-03-04T11:41:41.773Z,74.80
2018-03-04T11:44:10.080Z,76.00
2018-03-04T11:46:37.633Z,76.00
2018-03-04T11:49:05.173Z,76.30
2018-03-04T11:51:32.727Z,76.90
2018-03-04T11:54:00.241Z,76.30
2018-03-04T11:56:27.786Z,76.50
2018-03-04T11:58:55.313Z,76.80
2018-03-04T12:01:22.893Z,76.40
2018-03-04T12:03:50.409Z,76.80
2018-03-04T12:06:17.961Z,77.10
2018-03-04T12:08:45.485Z,78.50
2018-03-04T12:11:13.802Z,78.30
2018-03-04T12:13:41.353Z,78.20
2018-03-04T12:16:09.668Z,78.80
2018-03-04T12:18:37.181Z,78.70
2018-03-04T12:21:04.739Z,78.30
2018-03-04T12:23:32.265Z,77.70
2018-03-04T12:25:59.838Z,77.80
2018-03-04T12:28:27.406Z,77.70
2018-03-04T12:30:55.021Z,77.90
2018-03-04T12:33:22.512Z,77.80
2018-03-04T12:35:50.060Z,77.30
2018-03-04T12:38:17.596Z,77.00
2018-03-04T12:40:45.160Z,76.30
2018-03-04T12:43:13.448Z,77.00
2018-03-04T12:45:41.002Z,77.00
2018-03-04T12:48:08.534Z,77.90
2018-03-04T12:50:36.090Z,76.50
2018-03-04T12:53:03.622Z,76.90
2018-03-04T12:55:31.256Z,75.80
2018-03-04T12:57:58.753Z,75.70
2018-03-04T13:00:27.104Z,75.10
2018-03-04T13:02:54.634Z,75.10
2018-03-04T13:05:22.193Z,76.60
2018-03-04T13:07:49.719Z,75.60
2018-03-04T13:10:17.281Z,74.30
2018-03-04T13:12:45.174Z,74.60
2018-03-04T13:15:13.556Z,74.50
2018-03-04T13:17:41.080Z,74.50
2018-03-04T13:20:08.647Z,73.20
2018-03-04T13:22:36.165Z,74.00
2018-03-04T13:25:03.743Z,73.80
2018-03-04T13:27:31.300Z,73.80
2018-03-04T13:29:59.584Z,73.60
2018-03-04T13:32:27.152Z,73.70
2018-03-04T13:34:55.465Z,72.90
2018-03-04T13:37:23.017Z,72.70
2018-03-04T13:39:51.308Z,73.00
2018-03-04T13:42:18.887Z,73.00
2018-03-04T13:44:46.475Z,73.20
2018-03-04T13:47:14.096Z,72.80
2018-03-04T13:49:41.625Z,71.70
2018-03-04T13:52:09.186Z,71.20
2018-03-04T13:54:36.708Z,70.60
2018-03-04T13:57:04.266Z,69.70
2018-03-04T13:59:31.800Z,69.30
2018-03-04T14:01:59.378Z,68.90
2018-03-04T14:04:26.912Z,69.10
2018-03-04T14:06:54.469Z,69.40
2018-03-04T14:09:22.013Z,69.20
2018-03-04T14:11:49.583Z,69.60
2018-03-04T14:14:18.175Z,68.50
2018-03-04T14:16:45.744Z,68.50
2018-03-04T14:19:13.284Z,68.50
2018-03-04T14:21:41.604Z,69.90
2018-03-04T14:24:09.145Z,69.90
2018-03-04T14:26:36.702Z,70.40
2018-03-04T14:29:04.225Z,70.20
2018-03-04T14:31:31.786Z,70.50
2018-03-04T14:33:59.312Z,70.30
2018-03-04T14:36:26.888Z,70.20
2018-03-04T14:38:54.420Z,69.80
2018-03-04T14:41:21.995Z,70.10
2018-03-04T14:43:49.517Z,70.10
2018-03-04T14:46:17.080Z,70.50
2018-03-04T14:48:44.748Z,71.10
2018-03-04T14:51:12.304Z,72.60
2018-03-04T14:53:39.838Z,72.80
2018-03-04T14:56:07.396Z,73.20
2018-03-04T14:58:35.723Z,71.20
2018-03-04T15:01:03.303Z,71.20
2018-03-04T15:03:30.839Z,71.10
2018-03-04T15:05:59.173Z,71.60
2018-03-04T15:08:26.697Z,71.60
2018-03-04T15:10:54.309Z,71.90
2018-03-04T15:13:22.627Z,73.00
2018-03-04T15:15:50.223Z,73.00
2018-03-04T15:18:18.536Z,73.40
2018-03-04T15:20:46.101Z,73.40
2018-03-04T15:23:14.389Z,73.60
2018-03-04T15:25:42.715Z,74.10
2018-03-04T15:28:10.236Z,74.10
2018-03-04T15:30:38.572Z,74.60
2018-03-04T15:33:06.110Z,74.20
2018-03-04T15:35:33.680Z,74.80
2018-03-04T15:38:01.209Z,75.10
2018-03-04T15:40:28.786Z,75.90
2018-03-04T15:42:56.392Z,76.30
2018-03-04T15:45:24.727Z,76.50
2018-03-04T15:47:52.278Z,77.20
2018-03-04T15:50:19.840Z,76.20
2018-03-04T15:52:47.376Z,77.00
2018-03-04T15:55:14.936Z,76.30
2018-03-04T15:57:42.460Z,78.40
2018-03-04T16:00:10.788Z,79.30
2018-03-04T16:02:38.307Z,79.30
2018-03-04T16:05:06.636Z,80.50
2018-03-04T16:07:34.160Z,80.40
2018-03-04T16:10:01.713Z,80.20
2018-03-04T16:12:29.233Z,80.80
2018-03-04T16:14:56.829Z,80.70
2018-03-04T16:17:24.390Z,80.90
2018-03-04T16:19:51.964Z,81.30
2018-03-04T16:22:19.498Z,81.70
2018-03-04T16:24:47.040Z,82.20
2018-03-04T16:27:14.572Z,82.90
2018-03-04T16:29:42.182Z,82.60
2018-03-04T16:32:09.722Z,82.30
2018-03-04T16:34:37.288Z,82.70
2018-03-04T16:37:04.841Z,81.90
2018-03-04T16:39:33.168Z,82.30
2018-03-04T16:42:00.719Z,82.20
2018-03-04T16:44:28.272Z,83.00
2018-03-04T16:46:56.565Z,84.40
2018-03-04T16:49:24.899Z,84.70
2018-03-04T16:51:52.421Z,84.70
2018-03-04T16:54:20.764Z,85.30
2018-03-04T16:56:48.314Z,85.20
2018-03-04T16:59:15.876Z,85.30
2018-03-04T17:01:43.409Z,85.30
2018-03-04T17:04:10.988Z,85.70
2018-03-04T17:06:39.297Z,86.20
2018-03-04T17:09:07.639Z,86.20
2018-03-04T17:11:35.165Z,86.20
2018-03-04T17:14:02.728Z,86.70
2018-03-04T17:16:31.022Z,87.10
2018-03-04T17:18:59.358Z,86.50
2018-03-04T17:21:26.891Z,86.50
2018-03-04T17:23:55.222Z,87.00
2018-03-04T17:26:22.765Z,86.90
2018-03-04T17:28:50.390Z,87.10
2018-03-04T17:31:17.892Z,86.90
2018-03-04T17:33:46.220Z,87.20
2018-03-04T17:36:13.751Z,87.20
2018-03-04T17:38:41.305Z,87.10
2018-03-04T17:41:08.834Z,87.30
2018-03-04T17:43:36.389Z,87.10
2018-03-04T17:46:03.929Z,87.10
2018-03-04T17:48:31.477Z,87.00
2018-03-04T17:50:59.069Z,87.00
2018-03-04T17:53:26.626Z,87.00
2018-03-04T17:55:54.150Z,87.20
2018-03-04T17:58:21.713Z,87.20
2018-03-04T18:00:49.992Z,87.30
2018-03-04T18:03:17.538Z,87.30
2018-03-04T18:05:45.072Z,87.20
2018-03-04T18:08:12.696Z,87.30
2018-03-04T18:10:40.233Z,87.20
2018-03-04T18:13:07.804Z,87.50
2018-03-04T18:15:35.329Z,87.70
2018-03-04T18:18:03.726Z,88.10
2018-03-04T18:20:32.020Z,87.80
2018-03-04T18:23:00.339Z,87.70
2018-03-04T18:25:27.891Z,87.70
2018-03-04T18:27:55.505Z,87.90
2018-03-04T18:30:23.063Z,88.20
2018-03-04T18:32:50.656Z,88.30
2018-03-04T18:35:18.193Z,88.00
2018-03-04T18:37:45.749Z,88.10
2018-03-04T18:40:13.289Z,88.20
2018-03-04T18:42:40.862Z,88.30
2018-03-04T18:45:08.429Z,88.70
2018-03-04T18:47:36.000Z,88.50
2018-03-04T18:50:03.524Z,88.60
2018-03-04T18:52:31.077Z,88.50
2018-03-04T18:54:59.369Z,88.00
2018-03-04T18:57:27.689Z,87.90
2018-03-04T18:59:55.213Z,87.80
2018-03-04T19:02:23.553Z,88.30
2018-03-04T19:04:51.084Z,88.30
2018-03-04T19:07:18.657Z,88.10
2018-03-04T19:09:46.972Z,87.80
2018-03-04T19:12:14.516Z,87.80
2018-03-04T19:14:42.810Z,87.90
2018-03-04T19:17:11.200Z,87.90
2018-03-04T19:19:39.518Z,88.10
2018-03-04T19:22:07.069Z,88.10
2018-03-04T19:24:35.353Z,88.00
2018-03-04T19:27:02.921Z,87.90
2018-03-04T19:29:30.458Z,87.80
2018-03-04T19:31:58.028Z,87.60
2018-03-04T19:34:25.614Z,87.50
2018-03-04T19:36:53.154Z,87.00
2018-03-04T19:39:20.704Z,86.80
2018-03-04T19:41:49.027Z,86.60
2018-03-04T19:44:16.557Z,86.60
2018-03-04T19:46:44.872Z,86.50
2018-03-04T19:49:12.500Z,86.50
2018-03-04T19:51:40.095Z,86.50
2018-03-04T19:54:07.628Z,86.70
2018-03-04T19:56:35.189Z,86.60
2018-03-04T19:59:02.729Z,86.70
2018-03-04T20:01:30.279Z,86.80
2018-03-04T20:03:58.585Z,87.30
2018-03-04T20:06:26.192Z,87.30
2018-03-04T20:08:53.737Z,87.70
2018-03-04T20:11:21.296Z,88.00
2018-03-04T20:13:49.589Z,87.70
2018-03-04T20:16:17.928Z,87.60
2018-03-04T20:18:45.880Z,87.70
2018-03-04T20:21:13.436Z,88.00
2018-03-04T20:23:40.973Z,88.40
2018-03-04T20:26:08.672Z,88.10
2018-03-04T20:28:36.189Z,89.50
2018-03-04T20:31:03.882Z,90.00
2018-03-04T20:33:31.440Z,90.00
2018-03-04T20:35:59.013Z,89.50
2018-03-04T20:38:26.546Z,89.10
2018-03-04T20:40:54.155Z,89.20
2018-03-04T20:43:21.698Z,89.20
2018-03-04T20:45:49.256Z,89.50
2018-03-04T20:48:16.776Z,89.70
2018-03-04T20:50:44.338Z,90.00
2018-03-04T20:53:11.919Z,89.90
2018-03-04T20:55:39.477Z,89.90
2018-03-04T20:58:07.009Z,90.00
2018-03-04T21:00:34.574Z,90.00
2018-03-04T21:03:02.096Z,90.00
2018-03-04T21:05:29.650Z,90.40
2018-03-04T21:07:57.177Z,90.50
2018-03-04T21:10:24.729Z,90.90
2018-03-04T21:12:52.247Z,91.20
2018-03-04T21:15:20.569Z,91.20
2018-03-04T21:17:48.102Z,91.10
2018-03-04T21:20:15.653Z,91.20
2018-03-04T21:22:43.218Z,91.50
2018-03-04T21:25:10.770Z,91.50
2018-03-04T21:27:38.322Z,91.30
2018-03-04T21:30:05.853Z,91.50
2018-03-04T21:32:33.423Z,91.30
2018-03-04T21:35:00.965Z,91.30
2018-03-04T21:37:28.518Z,91.80
2018-03-04T21:39:56.053Z,91.90
2018-03-04T21:42:23.605Z,92.00
2018-03-04T21:44:51.127Z,92.20
2018-03-04T21:47:18.831Z,92.00
2018-03-04T21:49:46.412Z,92.10
2018-03-04T21:52:13.941Z,92.00
2018-03-04T21:54:43.408Z,92.40
2018-03-04T21:57:11.273Z,92.60
2018-03-04T21:59:38.806Z,92.50
2018-03-04T22:02:06.357Z,92.60
2018-03-04T22:04:33.893Z,92.40
2018-03-04T22:07:01.455Z,92.40
2018-03-04T22:09:28.984Z,92.60
2018-03-04T22:11:57.313Z,92.80
2018-03-04T22:14:24.848Z,92.80
2018-03-04T22:16:53.158Z,92.70
2018-03-04T22:19:20.681Z,92.70
2018-03-04T22:21:48.229Z,92.60
2018-03-04T22:24:15.755Z,92.30
2018-03-04T22:26:44.077Z,92.00
2018-03-04T22:29:11.603Z,92.00
2018-03-04T22:31:39.152Z,91.90
2018-03-04T22:34:06.665Z,91.70
2018-03-04T22:36:34.987Z,92.10
2018-03-04T22:39:02.500Z,92.20
2018-03-04T22:41:30.069Z,92.10
2018-03-04T22:43:57.582Z,92.10
2018-03-04T22:46:25.181Z,92.20
2018-03-04T22:48:53.433Z,92.00
2018-03-04T22:51:21.744Z,92.00
2018-03-04T22:53:49.261Z,92.00
2018-03-04T22:56:16.810Z,92.10
2018-03-04T22:58:44.392Z,92.20
2018-03-04T23:01:11.937Z,92.30
2018-03-04T23:03:39.459Z,92.60
2018-03-04T23:06:07.012Z,92.80
2018-03-04T23:08:34.532Z,93.00
2018-03-04T23:11:02.077Z,93.30
2018-03-04T23:13:29.599Z,93.30
2018-03-04T23:15:57.153Z,93.30
2018-03-04T23:18:24.668Z,93.50
2018-03-04T23:20:52.229Z,93.40
2018-03-04T23:23:19.745Z,92.90
2018-03-04T23:25:48.032Z,93.00
2018-03-04T23:28:15.573Z,92.70
2018-03-04T23:30:43.140Z,92.60
2018-03-04T23:33:10.656Z,92.50
2018-03-04T23:35:38.932Z,92.20
2018-03-04T23:38:06.484Z,92.20
2018-03-04T23:40:34.001Z,92.30
2018-03-04T23:43:02.316Z,92.50
2018-03-04T23:45:29.852Z,92.50
2018-03-04T23:47:58.171Z,93.00
2018-03-04T23:50:25.691Z,93.00
2018-03-04T23:52:53.231Z,93.30
2018-03-04T23:55:20.751Z,93.60
2018-03-04T23:57:49.065Z,93.80
